sensor_id;sensor_type;location;lat;lon;timestamp;P1;durP1;ratioP1;P2;durP2;ratioP2
79212;SDS011;68639;52.380;9.822;2024-01-15T00:01:42;32.97;;;17.30;;
79212;SDS011;68639;52.380;9.822;2024-01-15T00:04:08;31.90;;;16.80;;
79212;SDS011;68639;52.380;9.822;2024-01-15T00:06:33;26.70;;;15.93;;
79212;SDS011;68639;52.380;9.822;2024-01-15T00:08:58;29.97;;;15.87;;
79212;SDS011;68639;52.380;9.822;2024-01-15T00:11:23;28.07;;;15.70;;
79212;SDS011;68639;52.380;9.822;2024-01-15T00:13:49;31.77;;;16.37;;
79212;SDS011;68639;52.380;9.822;2024-01-15T00:16:14;27.73;;;14.97;;
79212;SDS011;68639;52.380;9.822;2024-01-15T00:18:39;27.83;;;14.63;;
79212;SDS011;68639;52.380;9.822;2024-01-15T00:21:04;37.87;;;24.87;;
79212;SDS011;68639;52.380;9.822;2024-01-15T00:23:29;23.67;;;13.53;;
79212;SDS011;68639;52.380;9.822;2024-01-15T00:25:54;20.47;;;13.83;;
79212;SDS011;68639;52.380;9.822;2024-01-15T00:28:20;21.80;;;12.87;;
79212;SDS011;68639;52.380;9.822;2024-01-15T00:30:45;21.13;;;12.13;;
79212;SDS011;68639;52.380;9.822;2024-01-15T00:33:10;25.07;;;12.60;;
79212;SDS011;68639;52.380;9.822;2024-01-15T00:35:37;22.17;;;11.03;;
79212;SDS011;68639;52.380;9.822;2024-01-15T00:38:02;21.13;;;11.43;;
79212;SDS011;68639;52.380;9.822;2024-01-15T00:40:27;24.17;;;12.07;;
79212;SDS011;68639;52.380;9.822;2024-01-15T00:42:53;23.87;;;12.67;;
79212;SDS011;68639;52.380;9.822;2024-01-15T00:45:18;24.17;;;13.00;;
79212;SDS011;68639;52.380;9.822;2024-01-15T00:47:43;22.80;;;12.40;;
79212;SDS011;68639;52.380;9.822;2024-01-15T00:50:09;24.60;;;12.23;;
79212;SDS011;68639;52.380;9.822;2024-01-15T00:52:34;23.90;;;11.80;;
79212;SDS011;68639;52.380;9.822;2024-01-15T00:54:59;25.53;;;11.03;;
79212;SDS011;68639;52.380;9.822;2024-01-15T00:57:25;21.67;;;11.00;;
79212;SDS011;68639;52.380;9.822;2024-01-15T00:59:50;20.37;;;11.90;;
79212;SDS011;68639;52.380;9.822;2024-01-15T01:02:15;22.40;;;11.93;;
79212;SDS011;68639;52.380;9.822;2024-01-15T01:04:40;19.50;;;10.93;;
79212;SDS011;68639;52.380;9.822;2024-01-15T01:07:05;18.03;;;11.03;;
79212;SDS011;68639;52.380;9.822;2024-01-15T01:09:31;22.10;;;10.47;;
79212;SDS011;68639;52.380;9.822;2024-01-15T01:11:56;16.83;;;9.60;;
79212;SDS011;68639;52.380;9.822;2024-01-15T01:14:21;20.97;;;11.07;;
79212;SDS011;68639;52.380;9.822;2024-01-15T01:16:46;22.37;;;10.90;;
79212;SDS011;68639;52.380;9.822;2024-01-15T01:19:12;23.10;;;11.17;;
79212;SDS011;68639;52.380;9.822;2024-01-15T01:21:37;21.20;;;10.67;;
79212;SDS011;68639;52.380;9.822;2024-01-15T01:24:02;18.07;;;9.57;;
79212;SDS011;68639;52.380;9.822;2024-01-15T01:26:27;26.00;;;10.23;;
79212;SDS011;68639;52.380;9.822;2024-01-15T01:28:52;21.37;;;9.57;;
79212;SDS011;68639;52.380;9.822;2024-01-15T01:31:18;22.10;;;8.80;;
79212;SDS011;68639;52.380;9.822;2024-01-15T01:33:45;20.67;;;8.83;;
79212;SDS011;68639;52.380;9.822;2024-01-15T01:36:11;17.47;;;7.90;;
79212;SDS011;68639;52.380;9.822;2024-01-15T01:38:36;23.73;;;7.57;;
79212;SDS011;68639;52.380;9.822;2024-01-15T01:41:02;25.20;;;7.87;;
79212;SDS011;68639;52.380;9.822;2024-01-15T01:43:27;17.43;;;6.50;;
79212;SDS011;68639;52.380;9.822;2024-01-15T01:45:52;18.73;;;6.13;;
79212;SDS011;68639;52.380;9.822;2024-01-15T01:48:17;18.50;;;5.67;;
79212;SDS011;68639;52.380;9.822;2024-01-15T01:50:42;16.63;;;6.33;;
79212;SDS011;68639;52.380;9.822;2024-01-15T01:53:08;22.23;;;6.20;;
79212;SDS011;68639;52.380;9.822;2024-01-15T01:55:34;15.73;;;5.53;;
79212;SDS011;68639;52.380;9.822;2024-01-15T01:58:01;17.40;;;5.00;;
79212;SDS011;68639;52.380;9.822;2024-01-15T02:00:26;17.57;;;4.37;;
79212;SDS011;68639;52.380;9.822;2024-01-15T02:02:52;16.20;;;4.90;;
79212;SDS011;68639;52.380;9.822;2024-01-15T02:05:18;16.33;;;4.80;;
79212;SDS011;68639;52.380;9.822;2024-01-15T02:07:43;19.17;;;4.97;;
79212;SDS011;68639;52.380;9.822;2024-01-15T02:10:08;16.93;;;5.37;;
79212;SDS011;68639;52.380;9.822;2024-01-15T02:12:34;19.90;;;7.80;;
79212;SDS011;68639;52.380;9.822;2024-01-15T02:15:00;18.00;;;4.43;;
79212;SDS011;68639;52.380;9.822;2024-01-15T02:17:25;19.77;;;4.80;;
79212;SDS011;68639;52.380;9.822;2024-01-15T02:19:50;16.60;;;4.53;;
79212;SDS011;68639;52.380;9.822;2024-01-15T02:22:15;15.80;;;4.40;;
79212;SDS011;68639;52.380;9.822;2024-01-15T02:24:41;17.17;;;4.07;;
79212;SDS011;68639;52.380;9.822;2024-01-15T02:27:06;20.20;;;5.33;;
79212;SDS011;68639;52.380;9.822;2024-01-15T02:29:31;19.63;;;5.30;;
79212;SDS011;68639;52.380;9.822;2024-01-15T02:31:57;16.67;;;4.47;;
79212;SDS011;68639;52.380;9.822;2024-01-15T02:34:22;19.53;;;4.07;;
79212;SDS011;68639;52.380;9.822;2024-01-15T02:36:47;15.93;;;4.70;;
79212;SDS011;68639;52.380;9.822;2024-01-15T02:39:12;21.57;;;4.33;;
79212;SDS011;68639;52.380;9.822;2024-01-15T02:41:37;18.80;;;3.93;;
79212;SDS011;68639;52.380;9.822;2024-01-15T02:44:02;19.90;;;3.83;;
79212;SDS011;68639;52.380;9.822;2024-01-15T02:46:28;21.10;;;4.37;;
79212;SDS011;68639;52.380;9.822;2024-01-15T02:48:53;18.90;;;3.80;;
79212;SDS011;68639;52.380;9.822;2024-01-15T02:51:18;17.10;;;3.20;;
79212;SDS011;68639;52.380;9.822;2024-01-15T02:53:44;21.10;;;4.27;;
79212;SDS011;68639;52.380;9.822;2024-01-15T02:56:09;14.60;;;2.90;;
79212;SDS011;68639;52.380;9.822;2024-01-15T02:58:35;18.60;;;3.10;;
79212;SDS011;68639;52.380;9.822;2024-01-15T03:01:00;10.63;;;2.97;;
79212;SDS011;68639;52.380;9.822;2024-01-15T03:03:25;22.27;;;2.60;;
79212;SDS011;68639;52.380;9.822;2024-01-15T03:05:51;15.77;;;2.33;;
79212;SDS011;68639;52.380;9.822;2024-01-15T03:08:16;19.17;;;2.73;;
79212;SDS011;68639;52.380;9.822;2024-01-15T03:10:42;19.17;;;2.70;;
79212;SDS011;68639;52.380;9.822;2024-01-15T03:13:07;26.17;;;10.27;;
79212;SDS011;68639;52.380;9.822;2024-01-15T03:15:32;20.13;;;2.70;;
79212;SDS011;68639;52.380;9.822;2024-01-15T03:17:57;27.50;;;3.17;;
79212;SDS011;68639;52.380;9.822;2024-01-15T03:20:23;18.03;;;3.23;;
79212;SDS011;68639;52.380;9.822;2024-01-15T03:22:48;11.60;;;1.90;;
79212;SDS011;68639;52.380;9.822;2024-01-15T03:25:13;18.27;;;2.23;;
79212;SDS011;68639;52.380;9.822;2024-01-15T03:27:39;14.10;;;2.90;;
79212;SDS011;68639;52.380;9.822;2024-01-15T03:30:04;11.93;;;2.40;;
79212;SDS011;68639;52.380;9.822;2024-01-15T03:32:29;15.23;;;2.37;;
79212;SDS011;68639;52.380;9.822;2024-01-15T03:34:54;14.63;;;2.00;;
79212;SDS011;68639;52.380;9.822;2024-01-15T03:37:20;14.40;;;1.90;;
79212;SDS011;68639;52.380;9.822;2024-01-15T03:39:45;11.07;;;2.03;;
79212;SDS011;68639;52.380;9.822;2024-01-15T03:42:10;22.43;;;2.57;;
79212;SDS011;68639;52.380;9.822;2024-01-15T03:44:35;19.50;;;2.60;;
79212;SDS011;68639;52.380;9.822;2024-01-15T03:47:01;14.73;;;2.17;;
79212;SDS011;68639;52.380;9.822;2024-01-15T03:49:26;13.57;;;2.33;;
79212;SDS011;68639;52.380;9.822;2024-01-15T03:51:51;9.53;;;1.87;;
79212;SDS011;68639;52.380;9.822;2024-01-15T03:54:16;14.50;;;2.47;;
79212;SDS011;68639;52.380;9.822;2024-01-15T03:56:41;14.60;;;2.23;;
79212;SDS011;68639;52.380;9.822;2024-01-15T03:59:07;12.33;;;1.50;;
79212;SDS011;68639;52.380;9.822;2024-01-15T04:01:32;7.90;;;2.10;;
79212;SDS011;68639;52.380;9.822;2024-01-15T04:03:57;12.63;;;2.27;;
79212;SDS011;68639;52.380;9.822;2024-01-15T04:06:22;15.17;;;2.37;;
79212;SDS011;68639;52.380;9.822;2024-01-15T04:08:47;19.30;;;3.00;;
79212;SDS011;68639;52.380;9.822;2024-01-15T04:11:13;11.40;;;2.20;;
79212;SDS011;68639;52.380;9.822;2024-01-15T04:13:38;14.83;;;2.47;;
79212;SDS011;68639;52.380;9.822;2024-01-15T04:16:03;14.83;;;1.83;;
79212;SDS011;68639;52.380;9.822;2024-01-15T04:18:28;10.60;;;1.70;;
79212;SDS011;68639;52.380;9.822;2024-01-15T04:20:53;19.20;;;2.43;;
79212;SDS011;68639;52.380;9.822;2024-01-15T04:23:19;15.93;;;2.67;;
79212;SDS011;68639;52.380;9.822;2024-01-15T04:25:44;12.10;;;2.07;;
79212;SDS011;68639;52.380;9.822;2024-01-15T04:28:10;17.90;;;2.70;;
79212;SDS011;68639;52.380;9.822;2024-01-15T04:30:36;13.47;;;2.13;;
79212;SDS011;68639;52.380;9.822;2024-01-15T04:33:01;12.77;;;2.03;;
79212;SDS011;68639;52.380;9.822;2024-01-15T04:35:26;18.60;;;2.50;;
79212;SDS011;68639;52.380;9.822;2024-01-15T04:37:51;19.53;;;3.67;;
79212;SDS011;68639;52.380;9.822;2024-01-15T04:40:17;12.60;;;2.17;;
79212;SDS011;68639;52.380;9.822;2024-01-15T04:42:42;12.13;;;1.80;;
79212;SDS011;68639;52.380;9.822;2024-01-15T04:45:07;13.93;;;2.37;;
79212;SDS011;68639;52.380;9.822;2024-01-15T04:47:32;17.60;;;2.97;;
79212;SDS011;68639;52.380;9.822;2024-01-15T04:49:57;12.43;;;2.07;;
79212;SDS011;68639;52.380;9.822;2024-01-15T04:52:23;16.20;;;2.70;;
79212;SDS011;68639;52.380;9.822;2024-01-15T04:54:48;10.20;;;2.17;;
79212;SDS011;68639;52.380;9.822;2024-01-15T04:57:13;16.60;;;2.43;;
79212;SDS011;68639;52.380;9.822;2024-01-15T04:59:39;15.53;;;2.10;;
79212;SDS011;68639;52.380;9.822;2024-01-15T05:02:04;15.87;;;2.53;;
79212;SDS011;68639;52.380;9.822;2024-01-15T05:04:29;11.70;;;2.43;;
79212;SDS011;68639;52.380;9.822;2024-01-15T05:06:55;20.40;;;2.33;;
79212;SDS011;68639;52.380;9.822;2024-01-15T05:09:20;12.50;;;2.53;;
79212;SDS011;68639;52.380;9.822;2024-01-15T05:11:45;12.43;;;2.13;;
79212;SDS011;68639;52.380;9.822;2024-01-15T05:14:10;17.40;;;3.50;;
79212;SDS011;68639;52.380;9.822;2024-01-15T05:16:38;16.30;;;2.40;;
79212;SDS011;68639;52.380;9.822;2024-01-15T05:19:03;21.53;;;2.43;;
79212;SDS011;68639;52.380;9.822;2024-01-15T05:21:28;20.87;;;2.57;;
79212;SDS011;68639;52.380;9.822;2024-01-15T05:23:53;16.47;;;2.60;;
79212;SDS011;68639;52.380;9.822;2024-01-15T05:26:18;15.47;;;3.03;;
79212;SDS011;68639;52.380;9.822;2024-01-15T05:28:44;15.20;;;2.57;;
79212;SDS011;68639;52.380;9.822;2024-01-15T05:31:09;16.97;;;3.30;;
79212;SDS011;68639;52.380;9.822;2024-01-15T05:33:34;18.63;;;2.97;;
79212;SDS011;68639;52.380;9.822;2024-01-15T05:35:59;14.30;;;3.03;;
79212;SDS011;68639;52.380;9.822;2024-01-15T05:38:25;15.83;;;2.73;;
79212;SDS011;68639;52.380;9.822;2024-01-15T05:40:50;14.90;;;2.90;;
79212;SDS011;68639;52.380;9.822;2024-01-15T05:43:15;17.43;;;2.60;;
79212;SDS011;68639;52.380;9.822;2024-01-15T05:45:42;16.43;;;2.30;;
79212;SDS011;68639;52.380;9.822;2024-01-15T05:48:07;13.43;;;2.20;;
79212;SDS011;68639;52.380;9.822;2024-01-15T05:50:32;19.17;;;2.73;;
79212;SDS011;68639;52.380;9.822;2024-01-15T05:52:58;15.20;;;3.47;;
79212;SDS011;68639;52.380;9.822;2024-01-15T05:55:23;12.73;;;2.67;;
79212;SDS011;68639;52.380;9.822;2024-01-15T05:57:48;16.00;;;2.60;;
79212;SDS011;68639;52.380;9.822;2024-01-15T06:00:13;17.60;;;2.93;;
79212;SDS011;68639;52.380;9.822;2024-01-15T06:02:39;9.40;;;2.00;;
79212;SDS011;68639;52.380;9.822;2024-01-15T06:05:04;17.07;;;2.50;;
79212;SDS011;68639;52.380;9.822;2024-01-15T06:07:29;18.47;;;2.33;;
79212;SDS011;68639;52.380;9.822;2024-01-15T06:09:55;15.43;;;2.27;;
79212;SDS011;68639;52.380;9.822;2024-01-15T06:12:22;13.70;;;2.47;;
79212;SDS011;68639;52.380;9.822;2024-01-15T06:14:47;13.07;;;2.30;;
79212;SDS011;68639;52.380;9.822;2024-01-15T06:17:12;12.53;;;2.17;;
79212;SDS011;68639;52.380;9.822;2024-01-15T06:19:37;15.60;;;2.20;;
79212;SDS011;68639;52.380;9.822;2024-01-15T06:22:02;13.20;;;2.40;;
79212;SDS011;68639;52.380;9.822;2024-01-15T06:24:28;10.33;;;2.13;;
79212;SDS011;68639;52.380;9.822;2024-01-15T06:26:53;14.73;;;2.40;;
79212;SDS011;68639;52.380;9.822;2024-01-15T06:29:18;15.07;;;2.37;;
79212;SDS011;68639;52.380;9.822;2024-01-15T06:31:43;15.20;;;2.20;;
79212;SDS011;68639;52.380;9.822;2024-01-15T06:34:09;17.70;;;2.63;;
79212;SDS011;68639;52.380;9.822;2024-01-15T06:36:34;18.57;;;2.53;;
79212;SDS011;68639;52.380;9.822;2024-01-15T06:38:59;12.53;;;2.80;;
79212;SDS011;68639;52.380;9.822;2024-01-15T06:41:24;14.73;;;2.73;;
79212;SDS011;68639;52.380;9.822;2024-01-15T06:43:50;15.63;;;2.63;;
79212;SDS011;68639;52.380;9.822;2024-01-15T06:46:22;11.10;;;2.53;;
79212;SDS011;68639;52.380;9.822;2024-01-15T06:48:47;12.27;;;2.97;;
79212;SDS011;68639;52.380;9.822;2024-01-15T06:51:12;16.60;;;2.67;;
79212;SDS011;68639;52.380;9.822;2024-01-15T06:53:37;13.27;;;3.57;;
79212;SDS011;68639;52.380;9.822;2024-01-15T06:56:02;14.10;;;2.70;;
79212;SDS011;68639;52.380;9.822;2024-01-15T06:58:28;12.87;;;3.20;;
79212;SDS011;68639;52.380;9.822;2024-01-15T07:00:53;13.77;;;3.27;;
79212;SDS011;68639;52.380;9.822;2024-01-15T07:03:18;17.13;;;3.00;;
79212;SDS011;68639;52.380;9.822;2024-01-15T07:05:43;20.63;;;4.10;;
79212;SDS011;68639;52.380;9.822;2024-01-15T07:08:09;15.23;;;3.40;;
79212;SDS011;68639;52.380;9.822;2024-01-15T07:10:34;18.47;;;3.40;;
79212;SDS011;68639;52.380;9.822;2024-01-15T07:12:59;15.80;;;3.00;;
79212;SDS011;68639;52.380;9.822;2024-01-15T07:15:24;15.40;;;2.73;;
79212;SDS011;68639;52.380;9.822;2024-01-15T07:17:50;12.90;;;2.63;;
79212;SDS011;68639;52.380;9.822;2024-01-15T07:23:17;14.37;;;3.10;;
79212;SDS011;68639;52.380;9.822;2024-01-15T07:25:43;12.00;;;3.37;;
79212;SDS011;68639;52.380;9.822;2024-01-15T07:28:08;12.67;;;3.53;;
79212;SDS011;68639;52.380;9.822;2024-01-15T07:30:33;11.60;;;3.20;;
79212;SDS011;68639;52.380;9.822;2024-01-15T07:32:58;13.73;;;3.53;;
79212;SDS011;68639;52.380;9.822;2024-01-15T07:35:24;13.00;;;3.63;;
79212;SDS011;68639;52.380;9.822;2024-01-15T07:37:49;7.97;;;3.33;;
79212;SDS011;68639;52.380;9.822;2024-01-15T07:40:14;15.37;;;3.40;;
79212;SDS011;68639;52.380;9.822;2024-01-15T07:42:40;14.03;;;3.57;;
79212;SDS011;68639;52.380;9.822;2024-01-15T07:45:05;15.17;;;4.23;;
79212;SDS011;68639;52.380;9.822;2024-01-15T07:47:30;11.47;;;3.73;;
79212;SDS011;68639;52.380;9.822;2024-01-15T07:49:56;14.20;;;3.50;;
79212;SDS011;68639;52.380;9.822;2024-01-15T07:52:21;12.93;;;3.37;;
79212;SDS011;68639;52.380;9.822;2024-01-15T07:54:46;11.70;;;3.77;;
79212;SDS011;68639;52.380;9.822;2024-01-15T07:57:11;14.10;;;3.87;;
79212;SDS011;68639;52.380;9.822;2024-01-15T07:59:36;13.87;;;4.17;;
79212;SDS011;68639;52.380;9.822;2024-01-15T08:02:02;12.07;;;3.60;;
79212;SDS011;68639;52.380;9.822;2024-01-15T08:04:27;13.60;;;4.27;;
79212;SDS011;68639;52.380;9.822;2024-01-15T08:06:53;16.47;;;3.93;;
79212;SDS011;68639;52.380;9.822;2024-01-15T08:09:18;19.30;;;4.77;;
79212;SDS011;68639;52.380;9.822;2024-01-15T08:11:43;18.77;;;3.53;;
79212;SDS011;68639;52.380;9.822;2024-01-15T08:14:09;16.07;;;3.87;;
79212;SDS011;68639;52.380;9.822;2024-01-15T08:16:34;18.77;;;4.63;;
79212;SDS011;68639;52.380;9.822;2024-01-15T08:18:59;19.73;;;4.77;;
79212;SDS011;68639;52.380;9.822;2024-01-15T08:21:25;15.40;;;4.10;;
79212;SDS011;68639;52.380;9.822;2024-01-15T08:23:50;11.67;;;3.63;;
79212;SDS011;68639;52.380;9.822;2024-01-15T08:26:15;10.27;;;3.77;;
79212;SDS011;68639;52.380;9.822;2024-01-15T08:28:40;11.60;;;4.47;;
79212;SDS011;68639;52.380;9.822;2024-01-15T08:31:06;17.43;;;4.47;;
79212;SDS011;68639;52.380;9.822;2024-01-15T08:33:31;12.50;;;4.53;;
79212;SDS011;68639;52.380;9.822;2024-01-15T08:35:56;17.47;;;4.80;;
79212;SDS011;68639;52.380;9.822;2024-01-15T08:38:21;14.77;;;3.77;;
79212;SDS011;68639;52.380;9.822;2024-01-15T08:40:46;14.93;;;4.50;;
79212;SDS011;68639;52.380;9.822;2024-01-15T08:43:12;20.80;;;4.73;;
79212;SDS011;68639;52.380;9.822;2024-01-15T08:45:37;14.90;;;3.90;;
79212;SDS011;68639;52.380;9.822;2024-01-15T08:48:04;10.43;;;3.53;;
79212;SDS011;68639;52.380;9.822;2024-01-15T08:50:29;12.43;;;3.30;;
79212;SDS011;68639;52.380;9.822;2024-01-15T08:52:54;10.67;;;3.50;;
79212;SDS011;68639;52.380;9.822;2024-01-15T08:55:19;16.20;;;3.07;;
79212;SDS011;68639;52.380;9.822;2024-01-15T08:57:47;10.77;;;3.00;;
79212;SDS011;68639;52.380;9.822;2024-01-15T09:00:12;12.13;;;3.17;;
79212;SDS011;68639;52.380;9.822;2024-01-15T09:02:38;9.37;;;2.90;;
79212;SDS011;68639;52.380;9.822;2024-01-15T09:05:03;11.17;;;3.23;;
79212;SDS011;68639;52.380;9.822;2024-01-15T09:07:29;11.27;;;3.00;;
79212;SDS011;68639;52.380;9.822;2024-01-15T09:09:54;11.10;;;2.90;;
79212;SDS011;68639;52.380;9.822;2024-01-15T09:12:19;14.90;;;2.83;;
79212;SDS011;68639;52.380;9.822;2024-01-15T09:14:46;11.80;;;2.80;;
79212;SDS011;68639;52.380;9.822;2024-01-15T09:17:11;13.93;;;3.50;;
79212;SDS011;68639;52.380;9.822;2024-01-15T09:19:36;12.83;;;3.13;;
79212;SDS011;68639;52.380;9.822;2024-01-15T09:22:02;15.17;;;2.90;;
79212;SDS011;68639;52.380;9.822;2024-01-15T09:24:27;23.60;;;3.27;;
79212;SDS011;68639;52.380;9.822;2024-01-15T09:26:52;9.57;;;2.77;;
79212;SDS011;68639;52.380;9.822;2024-01-15T09:29:17;13.50;;;3.13;;
79212;SDS011;68639;52.380;9.822;2024-01-15T09:31:43;15.40;;;4.40;;
79212;SDS011;68639;52.380;9.822;2024-01-15T09:34:08;16.63;;;2.87;;
79212;SDS011;68639;52.380;9.822;2024-01-15T09:36:38;13.20;;;3.13;;
79212;SDS011;68639;52.380;9.822;2024-01-15T09:39:04;13.27;;;2.83;;
79212;SDS011;68639;52.380;9.822;2024-01-15T09:41:31;13.03;;;3.13;;
79212;SDS011;68639;52.380;9.822;2024-01-15T09:43:56;10.93;;;3.23;;
79212;SDS011;68639;52.380;9.822;2024-01-15T09:46:21;10.70;;;2.77;;
79212;SDS011;68639;52.380;9.822;2024-01-15T09:48:47;12.53;;;2.70;;
79212;SDS011;68639;52.380;9.822;2024-01-15T09:51:12;14.97;;;2.90;;
79212;SDS011;68639;52.380;9.822;2024-01-15T09:53:37;13.27;;;3.00;;
79212;SDS011;68639;52.380;9.822;2024-01-15T09:56:04;11.90;;;2.80;;
79212;SDS011;68639;52.380;9.822;2024-01-15T09:58:30;11.37;;;2.63;;
79212;SDS011;68639;52.380;9.822;2024-01-15T10:00:55;18.50;;;3.50;;
79212;SDS011;68639;52.380;9.822;2024-01-15T10:03:21;14.40;;;3.47;;
79212;SDS011;68639;52.380;9.822;2024-01-15T10:05:46;12.73;;;3.10;;
79212;SDS011;68639;52.380;9.822;2024-01-15T10:08:11;11.17;;;3.03;;
79212;SDS011;68639;52.380;9.822;2024-01-15T10:10:37;11.30;;;4.73;;
79212;SDS011;68639;52.380;9.822;2024-01-15T10:13:03;8.53;;;2.60;;
79212;SDS011;68639;52.380;9.822;2024-01-15T10:15:29;10.83;;;3.17;;
79212;SDS011;68639;52.380;9.822;2024-01-15T10:17:54;7.60;;;2.60;;
79212;SDS011;68639;52.380;9.822;2024-01-15T10:20:19;8.37;;;2.90;;
79212;SDS011;68639;52.380;9.822;2024-01-15T10:22:47;7.93;;;3.10;;
79212;SDS011;68639;52.380;9.822;2024-01-15T10:25:12;8.70;;;2.70;;
79212;SDS011;68639;52.380;9.822;2024-01-15T10:27:38;9.50;;;2.57;;
79212;SDS011;68639;52.380;9.822;2024-01-15T10:30:04;11.50;;;3.53;;
79212;SDS011;68639;52.380;9.822;2024-01-15T10:32:29;7.93;;;2.80;;
79212;SDS011;68639;52.380;9.822;2024-01-15T10:34:55;7.30;;;2.50;;
79212;SDS011;68639;52.380;9.822;2024-01-15T10:37:20;7.33;;;2.60;;
79212;SDS011;68639;52.380;9.822;2024-01-15T10:39:48;38.17;;;23.63;;
79212;SDS011;68639;52.380;9.822;2024-01-15T10:42:14;10.60;;;3.20;;
79212;SDS011;68639;52.380;9.822;2024-01-15T10:44:40;14.33;;;2.83;;
79212;SDS011;68639;52.380;9.822;2024-01-15T10:47:06;12.57;;;2.93;;
79212;SDS011;68639;52.380;9.822;2024-01-15T10:49:31;10.17;;;3.10;;
79212;SDS011;68639;52.380;9.822;2024-01-15T10:51:57;16.37;;;3.03;;
79212;SDS011;68639;52.380;9.822;2024-01-15T10:54:23;13.53;;;3.13;;
79212;SDS011;68639;52.380;9.822;2024-01-15T10:56:51;10.20;;;2.57;;
79212;SDS011;68639;52.380;9.822;2024-01-15T10:59:18;9.07;;;2.70;;
79212;SDS011;68639;52.380;9.822;2024-01-15T11:01:44;10.97;;;2.90;;
79212;SDS011;68639;52.380;9.822;2024-01-15T11:04:11;11.67;;;2.60;;
79212;SDS011;68639;52.380;9.822;2024-01-15T11:06:41;12.67;;;2.90;;
79212;SDS011;68639;52.380;9.822;2024-01-15T11:09:07;7.33;;;2.70;;
79212;SDS011;68639;52.380;9.822;2024-01-15T11:11:34;13.03;;;2.70;;
79212;SDS011;68639;52.380;9.822;2024-01-15T11:14:00;11.23;;;2.20;;
79212;SDS011;68639;52.380;9.822;2024-01-15T11:16:25;7.13;;;2.53;;
79212;SDS011;68639;52.380;9.822;2024-01-15T11:19:12;13.07;;;2.57;;
79212;SDS011;68639;52.380;9.822;2024-01-15T11:21:41;10.10;;;2.23;;
79212;SDS011;68639;52.380;9.822;2024-01-15T11:24:07;8.47;;;2.03;;
79212;SDS011;68639;52.380;9.822;2024-01-15T11:26:37;16.87;;;2.07;;
79212;SDS011;68639;52.380;9.822;2024-01-15T11:29:06;5.00;;;1.93;;
79212;SDS011;68639;52.380;9.822;2024-01-15T11:34:03;10.33;;;2.30;;
79212;SDS011;68639;52.380;9.822;2024-01-15T11:41:56;11.50;;;3.20;;
79212;SDS011;68639;52.380;9.822;2024-01-15T11:44:21;12.37;;;2.57;;
79212;SDS011;68639;52.380;9.822;2024-01-15T11:46:56;13.67;;;2.40;;
79212;SDS011;68639;52.380;9.822;2024-01-15T11:50:04;12.87;;;2.33;;
79212;SDS011;68639;52.380;9.822;2024-01-15T11:52:11;12.43;;;2.30;;
79212;SDS011;68639;52.380;9.822;2024-01-15T11:54:37;8.07;;;2.10;;
79212;SDS011;68639;52.380;9.822;2024-01-15T11:57:04;9.13;;;2.23;;
79212;SDS011;68639;52.380;9.822;2024-01-15T11:59:34;11.50;;;2.50;;
79212;SDS011;68639;52.380;9.822;2024-01-15T12:01:59;11.77;;;2.83;;
79212;SDS011;68639;52.380;9.822;2024-01-15T12:04:25;7.17;;;2.57;;
79212;SDS011;68639;52.380;9.822;2024-01-15T12:06:51;15.83;;;2.60;;
79212;SDS011;68639;52.380;9.822;2024-01-15T12:09:18;10.53;;;2.77;;
79212;SDS011;68639;52.380;9.822;2024-01-15T12:11:45;13.00;;;2.60;;
79212;SDS011;68639;52.380;9.822;2024-01-15T12:14:12;11.27;;;2.70;;
79212;SDS011;68639;52.380;9.822;2024-01-15T12:16:37;12.37;;;3.20;;
79212;SDS011;68639;52.380;9.822;2024-01-15T12:19:03;13.83;;;3.23;;
79212;SDS011;68639;52.380;9.822;2024-01-15T12:21:28;9.27;;;2.80;;
79212;SDS011;68639;52.380;9.822;2024-01-15T12:23:53;14.17;;;3.17;;
79212;SDS011;68639;52.380;9.822;2024-01-15T12:26:20;16.77;;;3.33;;
79212;SDS011;68639;52.380;9.822;2024-01-15T12:28:45;16.40;;;3.40;;
79212;SDS011;68639;52.380;9.822;2024-01-15T12:31:11;15.33;;;2.80;;
79212;SDS011;68639;52.380;9.822;2024-01-15T12:33:36;14.07;;;2.67;;
79212;SDS011;68639;52.380;9.822;2024-01-15T12:36:01;13.37;;;3.00;;
79212;SDS011;68639;52.380;9.822;2024-01-15T12:38:28;11.03;;;3.00;;
79212;SDS011;68639;52.380;9.822;2024-01-15T12:40:53;10.93;;;2.83;;
79212;SDS011;68639;52.380;9.822;2024-01-15T12:43:18;12.20;;;2.90;;
79212;SDS011;68639;52.380;9.822;2024-01-15T12:45:44;15.07;;;2.40;;
79212;SDS011;68639;52.380;9.822;2024-01-15T12:48:09;10.27;;;2.50;;
79212;SDS011;68639;52.380;9.822;2024-01-15T12:50:34;11.37;;;2.33;;
79212;SDS011;68639;52.380;9.822;2024-01-15T12:53:01;13.90;;;2.53;;
79212;SDS011;68639;52.380;9.822;2024-01-15T12:55:26;15.27;;;2.47;;
79212;SDS011;68639;52.380;9.822;2024-01-15T12:57:51;11.13;;;2.30;;
79212;SDS011;68639;52.380;9.822;2024-01-15T13:00:20;9.83;;;2.47;;
79212;SDS011;68639;52.380;9.822;2024-01-15T13:02:45;16.03;;;2.93;;
79212;SDS011;68639;52.380;9.822;2024-01-15T13:05:10;13.13;;;2.67;;
79212;SDS011;68639;52.380;9.822;2024-01-15T13:07:36;11.27;;;3.07;;
79212;SDS011;68639;52.380;9.822;2024-01-15T13:10:01;12.73;;;2.97;;
79212;SDS011;68639;52.380;9.822;2024-01-15T13:12:26;15.27;;;2.63;;
79212;SDS011;68639;52.380;9.822;2024-01-15T13:14:51;14.27;;;2.70;;
79212;SDS011;68639;52.380;9.822;2024-01-15T13:17:17;10.50;;;2.23;;
79212;SDS011;68639;52.380;9.822;2024-01-15T13:19:42;12.60;;;2.77;;
79212;SDS011;68639;52.380;9.822;2024-01-15T13:22:07;9.90;;;2.17;;
79212;SDS011;68639;52.380;9.822;2024-01-15T13:24:34;13.77;;;3.43;;
79212;SDS011;68639;52.380;9.822;2024-01-15T13:27:00;9.40;;;2.57;;
79212;SDS011;68639;52.380;9.822;2024-01-15T13:29:26;8.43;;;2.00;;
79212;SDS011;68639;52.380;9.822;2024-01-15T13:31:51;14.00;;;2.83;;
79212;SDS011;68639;52.380;9.822;2024-01-15T13:34:16;9.70;;;2.27;;
79212;SDS011;68639;52.380;9.822;2024-01-15T13:36:41;8.07;;;1.90;;
79212;SDS011;68639;52.380;9.822;2024-01-15T13:39:06;11.93;;;2.63;;
79212;SDS011;68639;52.380;9.822;2024-01-15T13:41:34;10.67;;;1.80;;
79212;SDS011;68639;52.380;9.822;2024-01-15T13:43:59;12.13;;;2.07;;
79212;SDS011;68639;52.380;9.822;2024-01-15T13:46:25;9.77;;;2.40;;
79212;SDS011;68639;52.380;9.822;2024-01-15T13:48:53;12.60;;;1.83;;
79212;SDS011;68639;52.380;9.822;2024-01-15T13:51:18;14.33;;;2.87;;
79212;SDS011;68639;52.380;9.822;2024-01-15T13:53:43;11.77;;;2.13;;
79212;SDS011;68639;52.380;9.822;2024-01-15T13:56:09;11.43;;;2.37;;
79212;SDS011;68639;52.380;9.822;2024-01-15T13:58:37;12.43;;;2.80;;
79212;SDS011;68639;52.380;9.822;2024-01-15T14:01:02;9.83;;;2.30;;
79212;SDS011;68639;52.380;9.822;2024-01-15T14:03:29;10.77;;;2.27;;
79212;SDS011;68639;52.380;9.822;2024-01-15T14:05:54;7.73;;;2.50;;
79212;SDS011;68639;52.380;9.822;2024-01-15T14:08:20;16.37;;;2.90;;
79212;SDS011;68639;52.380;9.822;2024-01-15T14:10:45;19.40;;;3.80;;
79212;SDS011;68639;52.380;9.822;2024-01-15T14:13:10;23.93;;;3.47;;
79212;SDS011;68639;52.380;9.822;2024-01-15T14:15:35;13.60;;;3.60;;
79212;SDS011;68639;52.380;9.822;2024-01-15T14:18:01;13.73;;;3.33;;
79212;SDS011;68639;52.380;9.822;2024-01-15T14:20:27;12.20;;;3.10;;
79212;SDS011;68639;52.380;9.822;2024-01-15T14:22:52;16.90;;;3.93;;
79212;SDS011;68639;52.380;9.822;2024-01-15T14:25:17;22.83;;;8.10;;
79212;SDS011;68639;52.380;9.822;2024-01-15T14:27:43;21.70;;;3.80;;
79212;SDS011;68639;52.380;9.822;2024-01-15T14:30:08;15.37;;;4.30;;
79212;SDS011;68639;52.380;9.822;2024-01-15T14:32:34;11.60;;;3.97;;
79212;SDS011;68639;52.380;9.822;2024-01-15T14:34:59;14.10;;;3.80;;